• Join FlightAware (Why Join?)
  • Login
  • US Flag 
07:13PM EDT


 

Airport Tracker/Info


-or-


 

Live Flight TrackerFlight Track Log ✈ AAL963 ✈ 02-Sep-2013 ✈ KDFW - SBGR / GRU

Flight Track Log - Related Links

Times and Time Zones

All times are in EDT time to prevent confusion due to time zone crossing. See the AAL963 flight status page for this flight to view local times or setup timezone preferences in your user account.

Time Position Orientation Groundspeed Altitude Reporting Facility
EDT Latitude Longitude Course Direction KTS MPH feet Rate Location/Type
09:25PM 32.8690 -97.0520 184° South 196 226 1,500  Level FlightAware
09:25PM 32.8540 -97.0550 190° South 199 229 2,200 1,740 Climbing FlightAware
09:26PM 32.8370 -97.0590 191° South 220 253 2,500 720 Climbing FlightAware
09:26PM 32.8220 -97.0630 193° South 243 280 2,600 960 Climbing FlightAware
09:26PM 32.7970 -97.0690 191° South 263 303 3,100 1,560 Climbing FlightAware
09:27PM 32.7770 -97.0740 192° South 277 319 3,600 2,280 Climbing FlightAware
09:27PM 32.7510 -97.0800 191° South 280 322 4,500 2,460 Climbing FlightAware
09:27PM 32.7290 -97.0830 187° South 288 331 5,100 2,220 Climbing FlightAware
09:28PM 32.6980 -97.0780 172° South 290 334 6,000 2,340 Climbing FlightAware
09:28PM 32.6780 -97.0680 157° South 289 333 6,700 3,000 Climbing FlightAware
09:28PM 32.6640 -97.0580 149° Southeast 287 330 7,400 2,700 Climbing FlightAware
09:28PM 32.6420 -97.0420 149° Southeast 293 337 8,100 2,280 Climbing FlightAware
09:29PM 32.6220 -97.0290 151° Southeast 298 343 8,800 2,460 Climbing FlightAware
09:29PM 32.5980 -97.0130 151° Southeast 300 345 9,600 2,040 Climbing FlightAware
09:29PM 32.5810 -97.0020 151° Southeast 311 358 10,000 1,140 Climbing FlightAware
09:30PM 32.5290 -96.9700 153° Southeast 354 407 10,600 1,080 Climbing FlightAware
09:30PM 32.4800 -96.9390 152° Southeast 383 441 11,300 1,800 Climbing FlightAware
09:31PM 32.4210 -96.9020 152° Southeast 390 449 12,700 2,100 Climbing FlightAware
09:31PM 32.3680 -96.8680 152° Southeast 404 465 13,800 1,920 Climbing FlightAware
09:32PM 32.3060 -96.8290 152° Southeast 413 475 15,000 1,980 Climbing FlightAware
09:33PM 32.2430 -96.8000 159° South 421 484 16,200 2,040 Climbing FlightAware
09:33PM 32.1740 -96.7730 162° South 429 494 17,500 2,160 Climbing FlightAware
09:34PM 32.1474 -96.7629 162° South 430 495 18,000 1,680 Climbing FlightAware ADS-B
09:34PM 32.0879 -96.7406 162° South 439 505 18,800 1,800 Climbing FlightAware ADS-B
09:35PM 32.0043 -96.7089 162° South 445 512 20,200 1,860 Climbing FlightAware ADS-B
09:35PM 31.9447 -96.6863 162° South 450 518 21,100 1,620 Climbing FlightAware ADS-B
09:36PM 31.8829 -96.6628 162° South 455 524 21,900 1,740 Climbing FlightAware ADS-B
09:36PM 31.8199 -96.6374 161° South 459 528 22,900 1,440 Climbing FlightAware ADS-B
09:38PM 31.6295 -96.5589 161° South 482 555 24,900 1,320 Climbing FlightAware ADS-B
09:38PM 31.5616 -96.5312 161° South 484 557 25,700 1,380 Climbing FlightAware ADS-B
09:39PM 31.4975 -96.5053 161° South 488 562 26,400 1,260 Climbing FlightAware ADS-B
09:39PM 31.4310 -96.4805 162° South 493 567 27,000 1,260 Climbing FlightAware ADS-B
09:40PM 31.3634 -96.4558 163° South 497 572 27,700 1,440 Climbing FlightAware ADS-B
09:40PM 31.2968 -96.4311 162° South 497 572 28,500 1,260 Climbing FlightAware ADS-B
09:41PM 31.2298 -96.4062 162° South 504 580 29,000 960 Climbing FlightAware ADS-B
09:41PM 31.1898 -96.3872 155° Southeast 509 586 29,300 1,020 Climbing FlightAware ADS-B
09:41PM 31.1557 -96.3629 149° Southeast 509 586 29,600 1,320 Climbing FlightAware ADS-B
09:42PM 31.1201 -96.3319 143° Southeast 508 585 30,100 780 Climbing FlightAware ADS-B
09:43PM 30.9619 -96.1834 143° Southeast 506 582 31,000 420 Climbing FlightAware ADS-B
09:44PM 30.9054 -96.1334 143° Southeast 505 581 31,000  Level FlightAware ADS-B
09:44PM 30.8491 -96.0835 143° Southeast 505 581 31,000  Level FlightAware ADS-B
09:47PM 30.5663 -95.8328 143° Southeast 501 577 31,000  Level FlightAware ADS-B
09:48PM 30.4660 -95.7348 138° Southeast 502 578 31,000  Level FlightAware ADS-B
09:49PM 30.3672 -95.6183 134° Southeast 501 577 31,000  Level FlightAware ADS-B
09:49PM 30.3185 -95.5599 134° Southeast 499 574 31,000  Level FlightAware ADS-B
09:50PM 30.2702 -95.5020 134° Southeast 498 573 31,000  Level FlightAware ADS-B
09:52PM 30.0769 -95.2702 134° Southeast 498 573 31,000  Level FlightAware ADS-B
09:52PM 30.0285 -95.2124 134° Southeast 497 572 31,000  Level FlightAware ADS-B
09:53PM 29.9804 -95.1550 134° Southeast 499 574 31,000  Level FlightAware ADS-B
09:53PM 29.9315 -95.0967 134° Southeast 499 574 31,000  Level FlightAware ADS-B
09:54PM 29.8828 -95.0387 134° Southeast 500 575 31,000  Level FlightAware ADS-B
09:55PM 29.7358 -94.8644 134° Southeast 497 572 31,000  Level FlightAware ADS-B
09:56PM 29.6860 -94.8056 134° Southeast 498 573 31,000  Level FlightAware ADS-B
09:56PM 29.6373 -94.7481 134° Southeast 499 574 31,000  Level FlightAware ADS-B
09:57PM 29.5886 -94.6906 134° Southeast 499 574 31,000  Level FlightAware ADS-B
09:57PM 29.5398 -94.6331 134° Southeast 500 575 31,000  Level FlightAware ADS-B
09:58PM 29.4912 -94.5759 134° Southeast 500 575 31,000  Level FlightAware ADS-B
09:59PM 29.3450 -94.4048 135° Southeast 496 571 31,000  Level FlightAware ADS-B
10:00PM 29.2965 -94.3481 134° Southeast 497 572 31,000  Level FlightAware ADS-B
10:01PM 29.1850 -94.2160 134° Southeast 497 572 31,000  Level FlightAware
10:02PM 29.1050 -94.1250 135° Southeast 495 570 31,000  Level FlightAware
10:03PM 29.0570 -94.0670 133° Southeast 495 570 31,000  Level FlightAware
10:03PM 29.0110 -94.0130 134° Southeast 495 570 31,000  Level FlightAware
10:04PM 28.9620 -93.9550 134° Southeast 495 570 31,000  Level FlightAware
10:04PM 28.9130 -93.8970 134° Southeast 495 570 31,000  Level FlightAware
10:05PM 28.8150 -93.7910 137° Southeast 494 568 31,000  Level FlightAware
10:06PM 28.7610 -93.7270 134° Southeast 494 568 31,000  Level FlightAware
10:06PM 28.7120 -93.6680 133° Southeast 494 568 31,000  Level FlightAware
10:07PM 28.6630 -93.6110 134° Southeast 494 568 31,000  Level FlightAware
10:07PM 28.6140 -93.5540 134° Southeast 494 568 31,000  Level FlightAware
10:08PM 28.5660 -93.4970 134° Southeast 494 568 31,000  Level FlightAware
10:09PM 28.5170 -93.4390 134° Southeast 494 568 31,000  Level FlightAware
10:09PM 28.4670 -93.3800 134° Southeast 494 568 31,000  Level FlightAware
10:10PM 28.4050 -93.3070 134° Southeast 494 568 31,000  Level FlightAware
10:11PM 28.3570 -93.2500 134° Southeast 494 568 31,000  Level FlightAware
10:11PM 28.3070 -93.1910 134° Southeast 494 568 31,000  Level FlightAware
10:12PM 28.2570 -93.1330 134° Southeast 494 568 31,000  Level FlightAware
10:12PM 28.2080 -93.0760 134° Southeast 494 568 31,000  Level FlightAware
10:13PM 28.1600 -93.0190 134° Southeast 494 568 31,000  Level FlightAware
10:14PM 28.1110 -92.9620 134° Southeast 494 568 31,000  Level FlightAware
10:14PM 28.0610 -92.9030 134° Southeast 494 568 31,000  Level FlightAware
10:15PM 28.0110 -92.8440 134° Southeast 494 568 31,000 -120 Level FlightAware
10:16PM 27.7928 -92.6328 134° Southeast 485 558 30,900  Descending Houston Center
10:18PM 27.6335 -92.4279 137° Southeast  Level FlightAware Approximate
10:25PM 26.9271 -91.7414 144° Southeast  Level FlightAware Approximate
10:26PM 26.8182 -91.6546 145° Southeast  Level FlightAware Approximate
10:27PM 26.7093 -91.5679 145° Southeast  Level FlightAware Approximate
10:28PM 26.6003 -91.4814 145° Southeast  Level FlightAware Approximate
10:29PM 26.4900 -91.3940 145° Southeast  Level FlightAware Approximate
10:30PM 26.3797 -91.3067 145° Southeast  Level FlightAware Approximate
10:31PM 26.2693 -91.2196 145° Southeast  Level FlightAware Approximate
10:32PM 26.1589 -91.1327 145° Southeast  Level FlightAware Approximate
10:33PM 26.0484 -91.0459 145° Southeast  Level FlightAware Approximate
10:34PM 25.9379 -90.9592 145° Southeast  Level FlightAware Approximate
10:35PM 25.8273 -90.8728 145° Southeast  Level FlightAware Approximate
10:36PM 25.7167 -90.7865 145° Southeast  Level FlightAware Approximate
10:37PM 25.6060 -90.7003 145° Southeast  Level FlightAware Approximate
10:38PM 25.4953 -90.6143 145° Southeast  Level FlightAware Approximate
10:39PM 25.3845 -90.5285 145° Southeast  Level FlightAware Approximate
10:40PM 25.2737 -90.4428 145° Southeast  Level FlightAware Approximate
10:41PM 25.1628 -90.3573 145° Southeast  Level FlightAware Approximate
10:42PM 25.0519 -90.2719 145° Southeast  Level FlightAware Approximate
10:43PM 24.9410 -90.1867 145° Southeast  Level FlightAware Approximate
10:44PM 24.8299 -90.1017 145° Southeast  Level FlightAware Approximate
10:45PM 24.7189 -90.0168 145° Southeast  Level FlightAware Approximate
10:46PM 24.6077 -89.9320 145° Southeast  Level FlightAware Approximate
10:47PM 24.4969 -89.8469 138° Southeast  Level FlightAware Approximate
10:48PM 24.3861 -89.7621 146° Southeast  Level FlightAware Approximate
10:49PM 24.2734 -89.6796 146° Southeast  Level FlightAware Approximate
10:50PM 24.1607 -89.5973 146° Southeast  Level FlightAware Approximate
10:51PM 24.0479 -89.5151 145° Southeast  Level FlightAware Approximate
10:52PM 23.9367 -89.4305 145° Southeast  Level FlightAware Approximate
10:53PM 23.8254 -89.3461 145° Southeast  Level FlightAware Approximate
10:54PM 23.7141 -89.2618 145° Southeast  Level FlightAware Approximate
10:55PM 23.6027 -89.1777 145° Southeast  Level FlightAware Approximate
10:56PM 23.4912 -89.0937 145° Southeast  Level FlightAware Approximate
10:57PM 23.3798 -89.0098 145° Southeast  Level FlightAware Approximate
10:58PM 23.2683 -88.9261 145° Southeast  Level FlightAware Approximate
10:59PM 23.1568 -88.8425 145° Southeast  Level FlightAware Approximate
11:00PM 23.0458 -88.7580 145° Southeast  Level FlightAware Approximate
11:01PM 22.9348 -88.6737 145° Southeast  Level FlightAware Approximate
11:02PM 22.8237 -88.5895 145° Southeast  Level FlightAware Approximate
11:03PM 22.7127 -88.5055 145° Southeast  Level FlightAware Approximate
11:03PM 22.6960 -88.5020 145° Southeast 496 571 31,000  Level FlightAware
11:03PM 22.6200 -88.4450 145° Southeast 496 571 31,000  Level FlightAware
11:04PM 22.5520 -88.3820 139° Southeast 498 573 31,000  Level FlightAware
11:04PM 22.4880 -88.3180 137° Southeast 496 571 31,000  Level FlightAware
11:05PM 22.4350 -88.2640 137° Southeast 496 571 31,000  Level FlightAware
11:05PM 22.3780 -88.2060 137° Southeast 497 572 31,000  Level FlightAware
11:06PM 22.3160 -88.1430 137° Southeast 497 572 31,000  Level FlightAware
11:07PM 22.2590 -88.0860 137° Southeast 498 573 31,000  Level FlightAware
11:07PM 22.1850 -88.0100 136° Southeast 499 574 31,000  Level FlightAware
11:08PM 22.1190 -87.9440 137° Southeast 502 578 31,000  Level FlightAware
11:09PM 22.0530 -87.8780 137° Southeast 500 575 31,000  Level FlightAware
11:09PM 22.0050 -87.8290 137° Southeast 500 575 31,000  Level FlightAware
11:10PM 21.9310 -87.7540 137° Southeast 502 578 31,000  Level FlightAware
11:10PM 21.8790 -87.7030 138° Southeast 505 581 31,000  Level FlightAware
11:11PM 21.8070 -87.6310 137° Southeast 503 579 31,000  Level FlightAware
11:12PM 21.7590 -87.5830 137° Southeast 501 577 31,000  Level FlightAware
11:12PM 21.6810 -87.5050 137° Southeast 491 565 31,000  Level FlightAware
11:13PM 21.6280 -87.4530 138° Southeast 488 562 31,000  Level FlightAware
11:14PM 21.5670 -87.3920 137° Southeast 489 563 31,000  Level FlightAware
11:14PM 21.5070 -87.3330 138° Southeast 488 562 31,000 360 Level FlightAware
11:15PM 21.4500 -87.2770 138° Southeast 491 565 31,400 960 Climbing FlightAware
11:15PM 21.3870 -87.2150 137° Southeast 490 564 32,200 1,260 Climbing FlightAware
11:16PM 21.3260 -87.1550 137° Southeast 488 562 33,000 660 Climbing FlightAware
11:16PM 21.2680 -87.0970 137° Southeast 486 559 33,000  Level FlightAware
11:17PM 21.2120 -87.0420 138° Southeast 489 563 33,000  Level FlightAware
11:18PM 21.1530 -86.9840 137° Southeast 489 563 33,000  Level FlightAware
11:18PM 21.0970 -86.9300 138° Southeast 490 564 33,000  Level FlightAware
11:19PM 21.0360 -86.8700 137° Southeast 493 567 33,000  Level FlightAware
11:19PM 20.9760 -86.8110 137° Southeast 495 570 33,000  Level FlightAware
11:20PM 20.9140 -86.7510 138° Southeast 496 571 33,000  Level FlightAware
11:20PM 20.8590 -86.6970 137° Southeast 499 574 33,000  Level FlightAware
11:21PM 20.8030 -86.6440 138° Southeast 502 578 33,000  Level FlightAware
11:22PM 20.7400 -86.5820 137° Southeast 505 581 33,000  Level FlightAware
11:22PM 20.6760 -86.5210 138° Southeast 509 586 33,000  Level FlightAware
11:23PM 20.6150 -86.4610 137° Southeast 508 585 33,000  Level FlightAware
11:23PM 20.5510 -86.3990 138° Southeast 506 582 33,000  Level FlightAware
11:24PM 20.5040 -86.3520 137° Southeast 504 580 33,000  Level FlightAware
11:25PM 20.4270 -86.2570 131° Southeast 506 582 33,000  Level FlightAware
11:25PM 20.3820 -86.2000 130° Southeast 509 586 33,000  Level FlightAware
11:26PM 20.3240 -86.1270 130° Southeast 508 585 33,000  Level FlightAware
11:26PM 20.2730 -86.0640 131° Southeast 509 586 33,000  Level FlightAware
11:27PM 20.2150 -85.9950 132° Southeast 506 582 33,000  Level FlightAware
11:28PM 20.1720 -85.9430 131° Southeast 506 582 33,000  Level FlightAware
11:28PM 20.0970 -85.8530 132° Southeast 508 585 33,000  Level FlightAware
11:29PM 20.0210 -85.7600 131° Southeast 509 586 33,000  Level FlightAware
11:30PM 19.9510 -85.6680 129° Southeast 504 580 33,000  Level FlightAware
11:31PM 19.8970 -85.5950 128° Southeast 508 585 33,000  Level FlightAware
11:31PM 19.8350 -85.4940 123° Southeast 509 586 33,000  Level FlightAware
11:32PM 19.8000 -85.4520 132° Southeast 500 575 33,000  Level FlightAware
11:32PM 19.7510 -85.3940 132° Southeast 500 575 33,000  Level FlightAware
11:33PM 19.6920 -85.3270 133° Southeast 501 577 33,000  Level FlightAware
11:33PM 19.6430 -85.2730 134° Southeast 503 579 33,000  Level FlightAware
11:34PM 19.5800 -85.2000 132° Southeast 505 581 33,000  Level FlightAware
11:35PM 19.5290 -85.1380 131° Southeast 505 581 33,000  Level FlightAware
11:35PM 19.4820 -85.0810 131° Southeast 505 581 33,000  Level FlightAware
11:36PM 19.4350 -85.0240 131° Southeast 505 581 33,000  Level FlightAware
11:36PM 19.3880 -84.9670 131° Southeast 505 581 33,000  Level FlightAware
11:37PM 19.3420 -84.9100 131° Southeast 505 581 33,000  Level FlightAware
11:38PM 19.2950 -84.8520 131° Southeast 505 581 33,000  Level FlightAware
11:38PM 19.2460 -84.7940 132° Southeast 505 581 33,000  Level FlightAware
11:39PM 19.1990 -84.7360 131° Southeast 505 581 33,000  Level FlightAware
11:39PM 19.1530 -84.6790 131° Southeast 505 581 33,000  Level FlightAware
11:40PM 19.1060 -84.6220 131° Southeast 505 581 33,000  Level FlightAware
11:41PM 19.0590 -84.5650 131° Southeast 505 581 33,000  Level FlightAware
11:41PM 19.0090 -84.5050 131° Southeast 505 581 33,000  Level FlightAware
11:42PM 18.9650 -84.4510 131° Southeast 505 581 33,000  Level FlightAware
11:43PM 18.9170 -84.3920 131° Southeast 505 581 33,000  Level FlightAware
11:43PM 18.8700 -84.3350 131° Southeast 505 581 33,000  Level FlightAware
11:44PM 18.8230 -84.2780 131° Southeast 505 581 33,000  Level FlightAware
11:46PM 18.6437 -84.1036 137° Southeast  Level Estimated
11:47PM 18.5439 -84.0069 137° Southeast  Level Estimated
11:48PM 18.4442 -83.9103 137° Southeast  Level Estimated
11:49PM 18.3444 -83.8138 137° Southeast  Level Estimated
11:50PM 18.2445 -83.7174 137° Southeast  Level Estimated
11:51PM 18.1446 -83.6212 138° Southeast  Level Estimated
11:52PM 18.0446 -83.5250 138° Southeast  Level Estimated
11:53PM 17.9447 -83.4289 138° Southeast  Level Estimated
11:54PM 17.8446 -83.3330 138° Southeast  Level Estimated
11:55PM 17.7445 -83.2372 138° Southeast  Level Estimated
11:56PM 17.6444 -83.1414 138° Southeast  Level Estimated
11:57PM 17.5442 -83.0458 138° Southeast  Level Estimated
11:58PM 17.4440 -82.9503 138° Southeast  Level Estimated
11:59PM 17.3437 -82.8549 138° Southeast  Level Estimated
12:00AM 17.2433 -82.7596 138° Southeast  Level Estimated
12:01AM 17.1430 -82.6644 138° Southeast  Level Estimated
12:02AM 17.0426 -82.5693 138° Southeast  Level Estimated
12:03AM 16.9421 -82.4743 138° Southeast  Level Estimated
12:04AM 16.8416 -82.3794 138° Southeast  Level Estimated
12:05AM 16.7411 -82.2846 138° Southeast  Level Estimated
12:06AM 16.6405 -82.1899 138° Southeast  Level Estimated
12:07AM 16.5399 -82.0953 138° Southeast  Level Estimated
12:08AM 16.4392 -82.0008 138° Southeast  Level Estimated
12:09AM 16.3385 -81.9064 138° Southeast  Level Estimated
12:10AM 16.2377 -81.8121 138° Southeast  Level Estimated
12:11AM 16.1369 -81.7179 138° Southeast  Level Estimated
12:12AM 16.0361 -81.6238 138° Southeast  Level Estimated
12:13AM 15.9352 -81.5298 138° Southeast  Level Estimated
12:14AM 15.8343 -81.4358 138° Southeast  Level Estimated
12:15AM 15.7333 -81.3420 138° Southeast  Level Estimated
12:16AM 15.6323 -81.2483 138° Southeast  Level Estimated
12:17AM 15.5313 -81.1546 138° Southeast  Level Estimated
12:18AM 15.4302 -81.0611 138° Southeast  Level Estimated
12:19AM 15.3291 -80.9676 138° Southeast  Level Estimated
12:20AM 15.2279 -80.8743 138° Southeast  Level Estimated
12:21AM 15.1267 -80.7810 138° Southeast  Level Estimated
12:22AM 15.0253 -80.6876 138° Southeast  Level Estimated
12:23AM 14.9238 -80.5944 138° Southeast  Level Estimated
12:24AM 14.8223 -80.5012 138° Southeast  Level Estimated
12:25AM 14.7208 -80.4081 138° Southeast  Level Estimated
12:26AM 14.6192 -80.3151 138° Southeast  Level Estimated
12:27AM 14.5176 -80.2222 138° Southeast  Level Estimated
12:28AM 14.4160 -80.1293 138° Southeast  Level Estimated
12:29AM 14.3143 -80.0366 139° Southeast  Level Estimated
12:30AM 14.2126 -79.9439 139° Southeast  Level Estimated
12:31AM 14.1108 -79.8513 139° Southeast  Level Estimated
12:32AM 14.0090 -79.7588 139° Southeast  Level Estimated
12:33AM 13.9072 -79.6664 139° Southeast  Level Estimated
12:34AM 13.8054 -79.5741 139° Southeast  Level Estimated
12:35AM 13.7035 -79.4818 139° Southeast  Level Estimated
12:36AM 13.6015 -79.3896 139° Southeast  Level Estimated
12:37AM 13.4996 -79.2975 139° Southeast  Level Estimated
12:38AM 13.3976 -79.2055 139° Southeast  Level Estimated
12:39AM 13.2956 -79.1135 139° Southeast  Level Estimated
12:40AM 13.1935 -79.0217 139° Southeast  Level Estimated
12:41AM 13.0914 -78.9299 139° Southeast  Level Estimated
12:42AM 12.9893 -78.8382 139° Southeast  Level Estimated
12:43AM 12.8871 -78.7466 139° Southeast  Level Estimated
12:44AM 12.7849 -78.6550 139° Southeast  Level Estimated
12:45AM 12.6827 -78.5635 139° Southeast  Level Estimated
12:46AM 12.5805 -78.4721 139° Southeast  Level Estimated
12:47AM 12.4782 -78.3808 139° Southeast  Level Estimated
12:48AM 12.3759 -78.2895 139° Southeast  Level Estimated
12:49AM 12.2735 -78.1983 139° Southeast  Level Estimated
12:50AM 12.1712 -78.1071 139° Southeast  Level Estimated
12:51AM 12.0688 -78.0161 139° Southeast  Level Estimated
12:52AM 11.9663 -77.9251 139° Southeast  Level Estimated
12:53AM 11.8639 -77.8342 139° Southeast  Level Estimated
12:54AM 11.7614 -77.7433 139° Southeast  Level Estimated
12:55AM 11.6588 -77.6525 139° Southeast  Level Estimated
12:56AM 11.5563 -77.5618 139° Southeast  Level Estimated
12:57AM 11.4537 -77.4712 139° Southeast  Level Estimated
12:57AM 10.9690 -77.4240 139° Southeast 33,000  Level FlightAware
12:57AM 10.9600 -77.4160 139° Southeast 484 557 33,000  Level FlightAware
12:58AM 10.9010 -77.3630 139° Southeast 483 556 33,000  Level FlightAware
12:58AM 10.8330 -77.2990 137° Southeast 484 557 33,000  Level FlightAware
12:59AM 10.7750 -77.2450 138° Southeast 486 559 33,000  Level FlightAware
12:59AM 10.7140 -77.1860 136° Southeast 486 559 33,000  Level FlightAware
01:00AM 10.6630 -77.1360 136° Southeast 486 559 33,000  Level FlightAware
01:01AM 10.5770 -77.0610 139° Southeast 484 557 33,000  Level FlightAware
01:01AM 10.5270 -77.0140 137° Southeast 484 557 33,000  Level FlightAware
01:02AM 10.4570 -76.9490 138° Southeast 481 554 33,000  Level FlightAware
01:02AM 10.4060 -76.9020 138° Southeast 481 554 33,000  Level FlightAware
01:03AM 10.3470 -76.8470 137° Southeast 486 559 33,000  Level FlightAware
01:04AM 10.2910 -76.7950 138° Southeast 486 559 33,000  Level FlightAware
01:04AM 10.2300 -76.7380 137° Southeast 486 559 33,000  Level FlightAware
01:05AM 10.1730 -76.6850 138° Southeast 486 559 33,000  Level FlightAware
01:05AM 10.1050 -76.6220 138° Southeast 487 560 33,000  Level FlightAware
01:06AM 10.0500 -76.5710 138° Southeast 486 559 33,000  Level FlightAware
01:07AM 9.9930 -76.5180 138° Southeast 487 560 33,000  Level FlightAware
01:07AM 9.9320 -76.4620 138° Southeast 486 559 33,000  Level FlightAware
01:08AM 9.8800 -76.4140 138° Southeast 486 559 33,000  Level FlightAware
01:09AM 9.7940 -76.3320 137° Southeast 483 556 33,000  Level FlightAware
01:09AM 9.7280 -76.2730 139° Southeast 488 562 33,000  Level FlightAware
01:10AM 9.6790 -76.2290 138° Southeast 489 563 33,000  Level FlightAware
01:10AM 9.6130 -76.1670 137° Southeast 490 564 33,000  Level FlightAware
01:11AM 9.5590 -76.1170 138° Southeast 490 564 33,000  Level FlightAware
01:12AM 9.4730 -76.0380 138° Southeast 488 562 33,000  Level FlightAware
01:12AM 9.4100 -75.9800 138° Southeast 489 563 33,000  Level FlightAware
01:13AM 9.3530 -75.9280 138° Southeast 490 564 33,000  Level FlightAware
01:14AM 9.2930 -75.8730 138° Southeast 491 565 33,000  Level FlightAware
01:14AM 9.2320 -75.8160 137° Southeast 489 563 33,000  Level FlightAware
01:15AM 9.1710 -75.7610 138° Southeast 487 560 33,000  Level FlightAware
01:16AM 9.0960 -75.6730 131° Southeast 485 558 33,000  Level FlightAware
01:16AM 9.0350 -75.5820 124° Southeast 486 559 33,000  Level FlightAware
01:17AM 8.9780 -75.4970 124° Southeast 487 560 33,000  Level FlightAware
01:18AM 8.9130 -75.4000 124° Southeast 486 559 33,000  Level FlightAware
01:19AM 8.8670 -75.3310 124° Southeast 485 558 33,000  Level FlightAware
01:19AM 8.8250 -75.2690 124° Southeast 480 552 33,000  Level FlightAware
01:20AM 8.7750 -75.1960 125° Southeast 475 547 33,000  Level FlightAware
01:20AM 8.7310 -75.1320 125° Southeast 476 548 33,000  Level FlightAware
01:21AM 8.6860 -75.0670 125° Southeast 474 545 33,000  Level FlightAware
01:22AM 8.6450 -75.0070 125° Southeast 475 547 33,000  Level FlightAware
01:22AM 8.5940 -74.9320 125° Southeast 475 547 33,000  Level FlightAware
01:23AM 8.5500 -74.8670 124° Southeast 476 548 33,000  Level FlightAware
01:24AM 8.4970 -74.7870 124° Southeast 477 549 33,000  Level FlightAware
01:25AM 8.4400 -74.7020 124° Southeast 477 549 33,000  Level FlightAware
01:25AM 8.3800 -74.6120 124° Southeast 478 550 33,000  Level FlightAware
01:26AM 8.3310 -74.5620 135° Southeast 483 556 33,000  Level FlightAware
01:26AM 8.2630 -74.5190 148° Southeast 484 557 33,000  Level FlightAware
01:27AM 8.1940 -74.4790 150° Southeast 485 558 33,000  Level FlightAware
01:27AM 8.1250 -74.4410 151° Southeast 488 562 33,000  Level FlightAware
01:28AM 8.0390 -74.3920 151° Southeast 492 566 33,000  Level FlightAware
01:29AM 7.9760 -74.3560 150° Southeast 491 565 33,000  Level FlightAware
01:30AM 7.8810 -74.3010 150° Southeast 491 565 33,000  Level FlightAware
01:30AM 7.8100 -74.2600 150° Southeast 491 565 33,000  Level FlightAware
01:31AM 7.7410 -74.2200 150° Southeast 490 564 33,000  Level FlightAware
01:31AM 7.6730 -74.1800 150° Southeast 491 565 33,000  Level FlightAware
01:32AM 7.6080 -74.1420 150° Southeast 491 565 33,000  Level FlightAware
01:33AM 7.5230 -74.0930 150° Southeast 489 563 33,000  Level FlightAware
01:33AM 7.4650 -74.0590 150° Southeast 488 562 33,000  Level FlightAware
01:34AM 7.3960 -74.0190 150° Southeast 487 560 33,000  Level FlightAware
01:34AM 7.3290 -73.9800 150° Southeast 489 563 33,000  Level FlightAware
01:35AM 7.2560 -73.9380 150° Southeast 489 563 33,000  Level FlightAware
01:36AM 7.1300 -73.8650 150° Southeast 496 571 33,000  Level FlightAware
01:37AM 7.0500 -73.8180 150° Southeast 495 570 33,000  Level FlightAware
01:37AM 6.9690 -73.7730 151° Southeast 494 568 33,000  Level FlightAware
01:38AM 6.8910 -73.7310 152° Southeast 493 567 33,000  Level FlightAware
01:38AM 6.8170 -73.6910 152° Southeast 493 567 33,000  Level FlightAware
01:39AM 6.7590 -73.6600 152° Southeast 494 568 33,000  Level FlightAware
01:40AM 6.6770 -73.6160 152° Southeast 496 571 33,000  Level FlightAware
01:40AM 6.6060 -73.5770 151° Southeast 496 571 33,000  Level FlightAware
01:41AM 6.5320 -73.5370 152° Southeast 494 568 33,000  Level FlightAware
01:41AM 6.4590 -73.4970 151° Southeast 493 567 33,000  Level FlightAware
01:42AM 6.3940 -73.4620 152° Southeast 493 567 33,000  Level FlightAware
01:43AM 6.3180 -73.4210 152° Southeast 493 567 33,000  Level FlightAware
01:43AM 6.2450 -73.3820 152° Southeast 493 567 33,000  Level FlightAware
01:44AM 6.1810 -73.3470 151° Southeast 493 567 33,000  Level FlightAware
01:44AM 6.1010 -73.3030 151° Southeast 493 567 33,000  Level FlightAware
01:45AM 6.0400 -73.2690 151° Southeast 493 567 33,000  Level FlightAware
01:46AM 5.9790 -73.2350 151° Southeast 493 567 33,000  Level FlightAware
01:46AM 5.9180 -73.2010 151° Southeast 493 567 33,000  Level FlightAware
01:47AM 5.8550 -73.1660 151° Southeast 493 567 33,000  Level FlightAware
01:47AM 5.7940 -73.1320 151° Southeast 493 567 33,000  Level FlightAware
01:48AM 5.7330 -73.0980 151° Southeast 493 567 33,000  Level FlightAware
01:49AM 5.6700 -73.0630 151° Southeast 493 567 33,000  Level FlightAware
01:50AM 5.4600 -72.9590 154° Southeast 496 571 33,000  Level FlightAware
01:50AM 5.3880 -72.9200 152° Southeast 495 570 33,000  Level FlightAware
01:51AM 5.3190 -72.8830 152° Southeast 495 570 33,000  Level FlightAware
01:51AM 5.2460 -72.8430 151° Southeast 496 571 33,000  Level FlightAware
01:52AM 5.1780 -72.8070 152° Southeast 497 572 33,000  Level FlightAware
01:53AM 5.0920 -72.7600 151° Southeast 497 572 33,000  Level FlightAware
01:53AM 5.0310 -72.7260 151° Southeast 497 572 33,000  Level FlightAware
01:54AM 4.9680 -72.6910 151° Southeast 497 572 33,000  Level FlightAware
01:55AM 4.9060 -72.6570 151° Southeast 497 572 33,000  Level FlightAware
01:55AM 4.8450 -72.6220 150° Southeast 497 572 33,000  Level FlightAware
01:56AM 4.7810 -72.5870 151° Southeast 497 572 33,000  Level FlightAware
01:56AM 4.7200 -72.5530 151° Southeast 497 572 33,000  Level FlightAware
01:57AM 4.6580 -72.5190 151° Southeast 497 572 33,000  Level FlightAware
01:58AM 4.5970 -72.4850 151° Southeast 497 572 33,000  Level FlightAware
01:58AM 4.5350 -72.4500 151° Southeast 497 572 33,000  Level FlightAware
01:59AM 4.4740 -72.4160 151° Southeast 497 572 33,000  Level FlightAware
01:59AM 4.4120 -72.3820 151° Southeast 497 572 33,000  Level FlightAware
02:00AM 4.3510 -72.3480 151° Southeast 497 572 33,000  Level FlightAware
02:01AM 4.2890 -72.3140 151° Southeast 497 572 33,000  Level FlightAware
02:01AM 4.2270 -72.2790 151° Southeast 497 572 33,000  Level FlightAware
02:02AM 4.1660 -72.2450 151° Southeast 497 572 33,000  Level FlightAware
02:04AM 3.9600 -72.1461 154° Southeast  Level FlightAware Approximate
02:05AM 3.8467 -72.0722 145° Southeast  Level FlightAware Approximate
02:06AM 3.7358 -71.9939 145° Southeast  Level FlightAware Approximate
02:07AM 3.6248 -71.9156 145° Southeast  Level FlightAware Approximate
02:08AM 3.5138 -71.8374 145° Southeast  Level FlightAware Approximate
02:09AM 3.4029 -71.7591 145° Southeast  Level FlightAware Approximate
02:10AM 3.2919 -71.6809 145° Southeast  Level FlightAware Approximate
02:11AM 3.1809 -71.6028 145° Southeast  Level FlightAware Approximate
02:12AM 3.0699 -71.5246 145° Southeast  Level FlightAware Approximate
02:13AM 2.9589 -71.4464 145° Southeast  Level FlightAware Approximate
02:14AM 2.8479 -71.3683 145° Southeast  Level FlightAware Approximate
02:15AM 2.7369 -71.2901 145° Southeast  Level FlightAware Approximate
02:16AM 2.6259 -71.2120 145° Southeast  Level FlightAware Approximate
02:17AM 2.5149 -71.1339 145° Southeast  Level FlightAware Approximate
02:18AM 2.4039 -71.0558 145° Southeast  Level FlightAware Approximate
02:19AM 2.2928 -70.9777 145° Southeast  Level FlightAware Approximate
02:20AM 2.1818 -70.8997 145° Southeast  Level FlightAware Approximate
02:21AM 2.0708 -70.8216 145° Southeast  Level FlightAware Approximate
02:22AM 1.9597 -70.7436 145° Southeast  Level FlightAware Approximate
02:23AM 1.8487 -70.6656 145° Southeast  Level FlightAware Approximate
02:24AM 1.7377 -70.5875 145° Southeast  Level FlightAware Approximate
02:25AM 1.6266 -70.5095 145° Southeast  Level FlightAware Approximate
02:26AM 1.5156 -70.4315 145° Southeast  Level FlightAware Approximate
02:27AM 1.4045 -70.3535 145° Southeast  Level FlightAware Approximate
02:28AM 1.2934 -70.2755 145° Southeast  Level FlightAware Approximate
02:29AM 1.1868 -70.1919 138° Southeast  Level FlightAware Approximate
02:30AM 1.0855 -70.1017 138° Southeast  Level FlightAware Approximate
02:31AM 0.9841 -70.0115 138° Southeast  Level FlightAware Approximate
02:32AM 0.8827 -69.9213 138° Southeast  Level FlightAware Approximate
02:33AM 0.7814 -69.8311 138° Southeast  Level FlightAware Approximate
02:34AM 0.6800 -69.7409 138° Southeast  Level FlightAware Approximate
02:35AM 0.5786 -69.6507 138° Southeast  Level FlightAware Approximate
02:36AM 0.4772 -69.5604 138° Southeast  Level FlightAware Approximate
02:37AM 0.3759 -69.4703 138° Southeast  Level FlightAware Approximate
02:38AM 0.2745 -69.3801 138° Southeast  Level FlightAware Approximate
02:39AM 0.1731 -69.2899 138° Southeast  Level FlightAware Approximate
02:40AM 0.0717 -69.1997 138° Southeast  Level FlightAware Approximate
02:41AM -0.0297 -69.1095 138° Southeast  Level FlightAware Approximate
02:42AM -0.1310 -69.0193 138° Southeast  Level FlightAware Approximate
02:43AM -0.2324 -68.9291 138° Southeast  Level FlightAware Approximate
02:44AM -0.3338 -68.8389 138° Southeast  Level FlightAware Approximate
02:45AM -0.4352 -68.7487 138° Southeast  Level FlightAware Approximate
02:46AM -0.5366 -68.6585 138° Southeast  Level FlightAware Approximate
02:47AM -0.6379 -68.5683 138° Southeast  Level FlightAware Approximate
02:48AM -0.7393 -68.4781 138° Southeast  Level FlightAware Approximate
02:49AM -0.8407 -68.3879 138° Southeast  Level FlightAware Approximate
02:50AM -0.9420 -68.2977 138° Southeast  Level FlightAware Approximate
02:51AM -1.0434 -68.2075 138° Southeast  Level FlightAware Approximate
02:52AM -1.1448 -68.1173 138° Southeast  Level FlightAware Approximate
02:53AM -1.2462 -68.0270 138° Southeast  Level FlightAware Approximate
02:54AM -1.3475 -67.9368 138° Southeast  Level FlightAware Approximate
02:55AM -1.4489 -67.8465 138° Southeast  Level FlightAware Approximate
02:56AM -1.5502 -67.7563 138° Southeast  Level FlightAware Approximate
02:57AM -1.6516 -67.6660 138° Southeast  Level FlightAware Approximate
02:58AM -1.7529 -67.5758 138° Southeast  Level FlightAware Approximate
02:59AM -1.8542 -67.4855 138° Southeast  Level FlightAware Approximate
03:00AM -1.9556 -67.3952 138° Southeast  Level FlightAware Approximate
03:01AM -2.0569 -67.3049 138° Southeast  Level FlightAware Approximate
03:02AM -2.1583 -67.2146 138° Southeast  Level FlightAware Approximate
03:03AM -2.2594 -67.1244 138° Southeast  Level FlightAware Approximate
03:04AM -2.3605 -67.0343 138° Southeast  Level FlightAware Approximate
03:05AM -2.4616 -66.9441 138° Southeast  Level FlightAware Approximate
03:06AM -2.5628 -66.8539 138° Southeast  Level FlightAware Approximate
03:07AM -2.6639 -66.7636 138° Southeast  Level FlightAware Approximate
03:08AM -2.7650 -66.6734 138° Southeast  Level FlightAware Approximate
03:09AM -2.8661 -66.5832 138° Southeast  Level FlightAware Approximate
03:10AM -2.9672 -66.4929 138° Southeast  Level FlightAware Approximate
03:11AM -3.0682 -66.4026 138° Southeast  Level FlightAware Approximate
03:12AM -3.1693 -66.3123 138° Southeast  Level FlightAware Approximate
03:13AM -3.2704 -66.2220 138° Southeast  Level FlightAware Approximate
03:14AM -3.3715 -66.1317 138° Southeast  Level FlightAware Approximate
03:15AM -3.4725 -66.0414 138° Southeast  Level FlightAware Approximate
03:16AM -3.5735 -65.9510 138° Southeast  Level FlightAware Approximate
03:17AM -3.6746 -65.8606 138° Southeast  Level FlightAware Approximate
03:18AM -3.7756 -65.7702 138° Southeast  Level FlightAware Approximate
03:19AM -3.8766 -65.6797 138° Southeast  Level FlightAware Approximate
03:20AM -3.9776 -65.5893 138° Southeast  Level FlightAware Approximate
03:21AM -4.0786 -65.4988 138° Southeast  Level FlightAware Approximate
03:22AM -4.1796 -65.4083 138° Southeast  Level FlightAware Approximate
03:23AM -4.2806 -65.3178 138° Southeast  Level FlightAware Approximate
03:24AM -4.3816 -65.2273 138° Southeast  Level FlightAware Approximate
03:25AM -4.4825 -65.1367 138° Southeast  Level FlightAware Approximate
03:26AM -4.5835 -65.0461 138° Southeast  Level FlightAware Approximate
03:27AM -4.6844 -64.9555 138° Southeast  Level FlightAware Approximate
03:28AM -4.7853 -64.8648 138° Southeast  Level FlightAware Approximate
03:29AM -4.8862 -64.7742 138° Southeast  Level FlightAware Approximate
03:30AM -4.9871 -64.6835 138° Southeast  Level FlightAware Approximate
03:31AM -5.0880 -64.5927 138° Southeast  Level FlightAware Approximate
03:32AM -5.1889 -64.5020 138° Southeast  Level FlightAware Approximate
03:33AM -5.2897 -64.4112 138° Southeast  Level FlightAware Approximate
03:34AM -5.3906 -64.3204 138° Southeast  Level FlightAware Approximate
03:35AM -5.4914 -64.2296 138° Southeast  Level FlightAware Approximate
03:36AM -5.5922 -64.1387 138° Southeast  Level FlightAware Approximate
03:37AM -5.6930 -64.0478 138° Southeast  Level FlightAware Approximate
03:38AM -5.7938 -63.9568 138° Southeast  Level FlightAware Approximate
03:39AM -5.8946 -63.8658 138° Southeast  Level FlightAware Approximate
03:40AM -5.9954 -63.7748 138° Southeast  Level FlightAware Approximate
03:41AM -6.0961 -63.6838 138° Southeast  Level FlightAware Approximate
03:42AM -6.1970 -63.5926 138° Southeast  Level FlightAware Approximate
03:43AM -6.2979 -63.5013 138° Southeast  Level FlightAware Approximate
03:44AM -6.3988 -63.4100 138° Southeast  Level FlightAware Approximate
03:45AM -6.4997 -63.3186 138° Southeast  Level FlightAware Approximate
03:46AM -6.6005 -63.2273 138° Southeast  Level FlightAware Approximate
03:47AM -6.7014 -63.1358 138° Southeast  Level FlightAware Approximate
03:48AM -6.8022 -63.0444 138° Southeast  Level FlightAware Approximate
03:49AM -6.9030 -62.9529 138° Southeast  Level FlightAware Approximate
03:50AM -7.0038 -62.8614 138° Southeast  Level FlightAware Approximate
03:51AM -7.1045 -62.7698 138° Southeast  Level FlightAware Approximate
03:52AM -7.2053 -62.6782 138° Southeast  Level FlightAware Approximate
03:53AM -7.3060 -62.5865 138° Southeast  Level FlightAware Approximate
03:54AM -7.4067 -62.4949 138° Southeast  Level FlightAware Approximate
03:55AM -7.5074 -62.4031 138° Southeast  Level FlightAware Approximate
03:56AM -7.6081 -62.3113 138° Southeast  Level FlightAware Approximate
03:57AM -7.7087 -62.2195 138° Southeast  Level FlightAware Approximate
03:58AM -7.8094 -62.1276 138° Southeast  Level FlightAware Approximate
03:59AM -7.9100 -62.0357 138° Southeast  Level FlightAware Approximate
04:00AM -8.0105 -61.9438 138° Southeast  Level FlightAware Approximate
04:01AM -8.1111 -61.8518 138° Southeast  Level FlightAware Approximate
04:02AM -8.2117 -61.7597 138° Southeast  Level FlightAware Approximate
04:03AM -8.3122 -61.6676 138° Southeast  Level FlightAware Approximate
04:04AM -8.4127 -61.5755 138° Southeast  Level FlightAware Approximate
04:05AM -8.5132 -61.4833 138° Southeast  Level FlightAware Approximate
04:06AM -8.6137 -61.3911 138° Southeast  Level FlightAware Approximate
04:07AM -8.7141 -61.2988 138° Southeast  Level FlightAware Approximate
04:08AM -8.8145 -61.2065 138° Southeast  Level FlightAware Approximate
04:09AM -8.9149 -61.1141 138° Southeast  Level FlightAware Approximate
04:10AM -9.0153 -61.0216 138° Southeast  Level FlightAware Approximate
04:11AM -9.1157 -60.9291 138° Southeast  Level FlightAware Approximate
04:12AM -9.2160 -60.8366 138° Southeast  Level FlightAware Approximate
04:13AM -9.3163 -60.7440 138° Southeast  Level FlightAware Approximate
04:14AM -9.4166 -60.6513 138° Southeast  Level FlightAware Approximate
04:15AM -9.5168 -60.5587 138° Southeast  Level FlightAware Approximate
04:16AM -9.6171 -60.4659 138° Southeast  Level FlightAware Approximate
04:17AM -9.7173 -60.3731 138° Southeast  Level FlightAware Approximate
04:18AM -9.8175 -60.2802 138° Southeast  Level FlightAware Approximate
04:19AM -9.9176 -60.1873 138° Southeast  Level FlightAware Approximate
04:20AM -10.0177 -60.0943 138° Southeast  Level FlightAware Approximate
04:21AM -10.1179 -60.0013 138° Southeast  Level FlightAware Approximate
04:22AM -10.2179 -59.9082 138° Southeast  Level FlightAware Approximate
04:23AM -10.3180 -59.8151 138° Southeast  Level FlightAware Approximate
04:24AM -10.4178 -59.7220 137° Southeast  Level FlightAware Approximate
04:25AM -10.5177 -59.6289 137° Southeast  Level FlightAware Approximate
04:26AM -10.6174 -59.5358 137° Southeast  Level FlightAware Approximate
04:27AM -10.7172 -59.4425 137° Southeast  Level FlightAware Approximate
04:28AM -10.8169 -59.3493 137° Southeast  Level FlightAware Approximate
04:29AM -10.9167 -59.2559 137° Southeast  Level FlightAware Approximate
04:30AM -11.0163 -59.1625 137° Southeast  Level FlightAware Approximate
04:31AM -11.1160 -59.0690 137° Southeast  Level FlightAware Approximate
04:32AM -11.2156 -58.9755 137° Southeast  Level FlightAware Approximate
04:33AM -11.3152 -58.8819 137° Southeast  Level FlightAware Approximate
04:34AM -11.4148 -58.7882 137° Southeast  Level FlightAware Approximate
04:35AM -11.5143 -58.6945 137° Southeast  Level FlightAware Approximate
04:36AM -11.6138 -58.6007 137° Southeast  Level FlightAware Approximate
04:37AM -11.7133 -58.5068 137° Southeast  Level FlightAware Approximate
04:38AM -11.8127 -58.4129 137° Southeast  Level FlightAware Approximate
04:39AM -11.9121 -58.3189 137° Southeast  Level FlightAware Approximate
04:40AM -12.0115 -58.2248 137° Southeast  Level FlightAware Approximate
04:41AM -12.1109 -58.1307 137° Southeast  Level FlightAware Approximate
04:42AM -12.2102 -58.0365 137° Southeast  Level FlightAware Approximate
04:43AM -12.3095 -57.9422 137° Southeast  Level FlightAware Approximate
04:44AM -12.4087 -57.8479 137° Southeast  Level FlightAware Approximate
04:45AM -12.5079 -57.7534 137° Southeast  Level FlightAware Approximate
04:46AM -12.6071 -57.6590 137° Southeast  Level FlightAware Approximate
04:47AM -12.7063 -57.5644 137° Southeast  Level FlightAware Approximate
04:48AM -12.8054 -57.4697 137° Southeast  Level FlightAware Approximate
04:49AM -12.9045 -57.3750 137° Southeast  Level FlightAware Approximate
04:50AM -13.0035 -57.2802 137° Southeast  Level FlightAware Approximate
04:51AM -13.1026 -57.1854 137° Southeast  Level FlightAware Approximate
04:52AM -13.2015 -57.0904 137° Southeast  Level FlightAware Approximate
04:53AM -13.3005 -56.9954 137° Southeast  Level FlightAware Approximate
04:54AM -13.3994 -56.9003 137° Southeast  Level FlightAware Approximate
04:55AM -13.4983 -56.8051 137° Southeast  Level FlightAware Approximate
04:56AM -13.5971 -56.7099 137° Southeast  Level FlightAware Approximate
04:57AM -13.6959 -56.6145 137° Southeast  Level FlightAware Approximate
04:58AM -13.7947 -56.5191 137° Southeast  Level FlightAware Approximate
04:59AM -13.8934 -56.4236 137° Southeast  Level FlightAware Approximate
05:00AM -13.9921 -56.3281 137° Southeast  Level FlightAware Approximate
05:01AM -14.0908 -56.2324 137° Southeast  Level FlightAware Approximate
05:02AM -14.1894 -56.1367 137° Southeast  Level FlightAware Approximate
05:03AM -14.2880 -56.0408 137° Southeast  Level FlightAware Approximate
05:04AM -14.3865 -55.9449 137° Southeast  Level FlightAware Approximate
05:05AM -14.4851 -55.8489 137° Southeast  Level FlightAware Approximate
05:06AM -14.5835 -55.7529 137° Southeast  Level FlightAware Approximate
05:07AM -14.6820 -55.6567 137° Southeast  Level FlightAware Approximate
05:08AM -14.7803 -55.5605 137° Southeast  Level FlightAware Approximate
05:09AM -14.8787 -55.4641 137° Southeast  Level FlightAware Approximate
05:10AM -14.9770 -55.3677 137° Southeast  Level FlightAware Approximate
05:11AM -15.0753 -55.2712 137° Southeast  Level FlightAware Approximate
05:12AM -15.1735 -55.1746 136° Southeast  Level FlightAware Approximate
05:13AM -15.2717 -55.0779 136° Southeast  Level FlightAware Approximate
05:14AM -15.3698 -54.9811 136° Southeast  Level FlightAware Approximate
05:15AM -15.4679 -54.8842 136° Southeast  Level FlightAware Approximate
05:16AM -15.5660 -54.7873 136° Southeast  Level FlightAware Approximate
05:17AM -15.6640 -54.6902 136° Southeast  Level FlightAware Approximate
05:18AM -15.7620 -54.5930 136° Southeast  Level FlightAware Approximate
05:19AM -15.8599 -54.4958 136° Southeast  Level FlightAware Approximate
05:20AM -15.9578 -54.3984 136° Southeast  Level FlightAware Approximate
05:21AM -16.0557 -54.3010 136° Southeast  Level FlightAware Approximate
05:22AM -16.1535 -54.2035 136° Southeast  Level FlightAware Approximate
05:23AM -16.2512 -54.1059 136° Southeast  Level FlightAware Approximate
05:24AM -16.3489 -54.0081 136° Southeast  Level FlightAware Approximate
05:25AM -16.4466 -53.9103 136° Southeast  Level FlightAware Approximate
05:26AM -16.5442 -53.8124 136° Southeast  Level FlightAware Approximate
05:27AM -16.6418 -53.7144 136° Southeast  Level FlightAware Approximate
05:28AM -16.7393 -53.6162 136° Southeast  Level FlightAware Approximate
05:29AM -16.8368 -53.5180 136° Southeast  Level FlightAware Approximate
05:30AM -16.9342 -53.4197 136° Southeast  Level FlightAware Approximate
05:31AM -17.0316 -53.3213 136° Southeast  Level FlightAware Approximate
05:32AM -17.1290 -53.2228 136° Southeast  Level FlightAware Approximate
05:33AM -17.2263 -53.1241 136° Southeast  Level FlightAware Approximate
05:34AM -17.3235 -53.0254 136° Southeast  Level FlightAware Approximate
05:35AM -17.4207 -52.9266 136° Southeast  Level FlightAware Approximate
05:36AM -17.5179 -52.8276 136° Southeast  Level FlightAware Approximate
05:37AM -17.6150 -52.7286 136° Southeast  Level FlightAware Approximate
05:38AM -17.7120 -52.6294 136° Southeast  Level FlightAware Approximate
05:39AM -17.8090 -52.5301 136° Southeast  Level FlightAware Approximate
05:40AM -17.9060 -52.4308 136° Southeast  Level FlightAware Approximate
05:41AM -18.0029 -52.3313 136° Southeast  Level FlightAware Approximate
05:41AM -19.0250 -50.6550 136° Southeast 553 636 37,000  Level FlightAware
05:42AM -18.0997 -52.2317 136° Southeast  Level FlightAware Approximate
05:42AM -19.0840 -50.5910 134° Southeast 550 633 37,000  Level FlightAware
05:42AM -19.1450 -50.5240 134° Southeast 549 632 37,000  Level FlightAware
05:43AM -19.2050 -50.4590 134° Southeast 550 633 37,000  Level FlightAware
05:44AM -19.2730 -50.3850 134° Southeast 553 636 37,000  Level FlightAware
05:44AM -19.3300 -50.3230 134° Southeast 555 639 37,000  Level FlightAware
05:45AM -19.3950 -50.2520 134° Southeast 555 639 37,000  Level FlightAware
05:45AM -19.4580 -50.1820 134° Southeast 556 640 37,000  Level FlightAware
05:46AM -19.5230 -50.1110 134° Southeast 556 640 37,000  Level FlightAware
05:47AM -19.5810 -50.0480 134° Southeast 557 641 37,000  Level FlightAware
05:47AM -19.6440 -49.9780 134° Southeast 557 641 37,000  Level FlightAware
05:48AM -19.7050 -49.9110 134° Southeast 555 639 37,000  Level FlightAware
05:48AM -19.7730 -49.8360 134° Southeast 554 638 37,000  Level FlightAware
05:49AM -19.8310 -49.7730 134° Southeast 554 638 37,000  Level FlightAware
05:49AM -19.8930 -49.7040 134° Southeast 554 638 37,000  Level FlightAware
05:50AM -19.9510 -49.6400 134° Southeast 555 639 37,000  Level FlightAware
05:51AM -20.0190 -49.5650 134° Southeast 555 639 37,000  Level FlightAware
05:51AM -20.0840 -49.4930 134° Southeast 556 640 37,000  Level FlightAware
05:52AM -20.1480 -49.4220 134° Southeast 555 639 37,000  Level FlightAware
05:52AM -20.2050 -49.3580 134° Southeast 555 639 37,000  Level FlightAware
05:53AM -20.2680 -49.2880 134° Southeast 555 639 37,000  Level FlightAware
05:54AM -20.3320 -49.2170 134° Southeast 555 639 37,000  Level FlightAware
05:54AM -20.3860 -49.1570 134° Southeast 555 639 37,000  Level FlightAware
05:55AM -20.4570 -49.0780 134° Southeast 555 639 37,000  Level FlightAware
05:55AM -20.5190 -49.0080 133° Southeast 555 639 37,000  Level FlightAware
05:56AM -20.5780 -48.9420 134° Southeast 555 639 37,000  Level FlightAware
05:56AM -20.6420 -48.8710 134° Southeast 554 638 37,000  Level FlightAware
05:57AM -20.7070 -48.7980 134° Southeast 553 636 37,000  Level FlightAware
05:58AM -20.7640 -48.7340 134° Southeast 553 636 37,000  Level FlightAware
05:58AM -20.8260 -48.6650 134° Southeast 555 639 37,000  Level FlightAware
05:59AM -20.8890 -48.5930 133° Southeast 557 641 37,000  Level FlightAware
05:59AM -20.9520 -48.5220 134° Southeast 556 640 37,000  Level FlightAware
06:00AM -21.0090 -48.4570 133° Southeast 553 636 37,000  Level FlightAware
06:00AM -21.0650 -48.3940 134° Southeast 553 636 37,000  Level FlightAware
06:01AM -21.1310 -48.3190 133° Southeast 552 635 37,000  Level FlightAware
06:02AM -21.2030 -48.2380 134° Southeast 553 636 37,000  Level FlightAware
06:02AM -21.2580 -48.1760 134° Southeast 555 639 37,000  Level FlightAware
06:03AM -21.3220 -48.1040 134° Southeast 555 639 37,000  Level FlightAware
06:03AM -21.3860 -48.0300 133° Southeast 553 636 37,000  Level FlightAware
06:04AM -21.4430 -47.9660 134° Southeast 553 636 37,000  Level FlightAware
06:05AM -21.5040 -47.8960 133° Southeast 553 636 37,000  Level FlightAware
06:05AM -21.5660 -47.8250 133° Southeast 553 636 37,000 -360 Level FlightAware
06:06AM -21.6270 -47.7550 133° Southeast 546 628 36,600 -1,800 Descending FlightAware
06:06AM -21.6910 -47.6820 133° Southeast 548 631 34,900 -2,640 Descending FlightAware
06:07AM -21.7530 -47.6110 133° Southeast 546 628 33,400 -2,280 Descending FlightAware
06:08AM -21.8060 -47.5500 133° Southeast 536 617 32,400 -1,920 Descending FlightAware
06:08AM -21.8670 -47.4800 133° Southeast 524 603 31,300 -1,860 Descending FlightAware
06:09AM -21.9250 -47.4130 133° Southeast 513 590 30,200 -1,860 Descending FlightAware
06:09AM -21.9880 -47.3510 138° Southeast 494 568 29,100 -1,860 Descending FlightAware
06:10AM -22.0500 -47.3180 154° Southeast 475 547 28,100 -1,920 Descending FlightAware
06:10AM -22.1230 -47.2870 159° South 464 534 27,000 -1,860 Descending FlightAware
06:11AM -22.1880 -47.2610 160° South 456 525 26,000 -1,800 Descending FlightAware
06:12AM -22.2510 -47.2350 159° South 449 517 25,100 -1,800 Descending FlightAware
06:12AM -22.3220 -47.2050 159° South 442 509 24,000 -1,800 Descending FlightAware
06:13AM -22.3850 -47.1790 159° South 435 501 23,000 -1,680 Descending FlightAware
06:13AM -22.4560 -47.1490 159° South 429 494 22,000 -1,860 Descending FlightAware
06:14AM -22.5220 -47.1210 159° South 425 489 20,800 -1,980 Descending FlightAware
06:14AM -22.5810 -47.0960 159° South 419 482 19,800 -1,740 Descending FlightAware
06:15AM -22.6410 -47.0710 159° South 414 476 18,900 -1,680 Descending FlightAware
06:16AM -22.7090 -47.0420 159° South 406 467 17,800 -1,860 Descending FlightAware
06:16AM -22.7690 -47.0170 159° South 404 465 16,700 -1,800 Descending FlightAware
06:17AM -22.8310 -46.9910 159° South 399 459 15,700 -1,500 Descending FlightAware
06:17AM -22.8930 -46.9650 159° South 386 444 14,900 -1,140 Descending FlightAware
06:18AM -22.9500 -46.9410 159° South 365 420 14,400 -840 Descending FlightAware
06:19AM -22.9990 -46.9210 159° South 330 380 14,000 -1,260 Descending FlightAware
06:19AM -23.0480 -46.9000 158° South 303 349 13,000 -1,980 Descending FlightAware
06:20AM -23.0920 -46.8810 158° South 298 343 11,700 -2,280 Descending FlightAware
06:20AM -23.1400 -46.8610 159° South 294 338 10,300 -2,100 Descending FlightAware
06:21AM -23.1660 -46.8500 159° South 295 339 9,700 -1,500 Descending FlightAware
06:21AM -23.1910 -46.8400 160° South 292 336 9,300 -1,500 Descending FlightAware
06:21AM -23.2170 -46.8290 159° South 290 334 8,700 -1,560 Descending FlightAware
06:22AM -23.2450 -46.8170 159° South 290 334 8,200 -1,440 Descending FlightAware
06:22AM -23.2700 -46.8060 158° South 291 335 7,700 -1,320 Descending FlightAware
06:22AM -23.2860 -46.8000 161° South 290 334 7,500 -1,140 Descending FlightAware
06:23AM -23.3110 -46.7890 158° South 290 334 7,100 -660 Descending FlightAware
06:23AM -23.3430 -46.7750 158° South 286 329 7,000 -540 Descending FlightAware
06:23AM -23.3670 -46.7640 157° South 284 327 6,700 -1,020 Descending FlightAware
06:24AM -23.3780 -46.7570 150° Southeast 284 327 6,500 -1,020 Descending FlightAware
06:24AM -23.4050 -46.7320 140° Southeast 281 323 6,100 -720 Descending FlightAware
06:24AM -23.4220 -46.7170 141° Southeast 270 311 6,000 -480 Descending FlightAware
06:25AM -23.4420 -46.6970 137° Southeast 252 290 5,800 -840 Descending FlightAware
06:25AM -23.4470 -46.6890 124° Southeast 244 281 5,600 -1,500 Descending FlightAware
06:25AM -23.4550 -46.6770 126° Southeast 232 267 5,300 -1,380 Descending FlightAware
06:25AM -23.4650 -46.6520 114° Southeast 214 246 4,800 -960 Descending FlightAware
06:26AM -23.4730 -46.6330 115° Southeast 199 229 4,600 -480 Descending FlightAware
06:26AM -23.4740 -46.6250 98° East 193 222 4,600 -240 Level FlightAware
06:26AM -23.4700 -46.6030 79° East 184 212 4,500 -480 Descending FlightAware
06:27AM -23.4670 -46.5900 76° East 170 196 4,300 -900 Descending FlightAware
06:27AM -23.4630 -46.5750 74° East 170 196 4,000 -1,080 Descending FlightAware
06:27AM -23.4580 -46.5560 74° East 168 193 3,600 -960 Descending FlightAware
06:28AM -23.4520 -46.5380 70° East 165 190 3,300 -840 Descending FlightAware
06:28AM -23.4480 -46.5210 76° East 163 188 3,000 -900 Descending FlightAware
06:28AM -23.4440 -46.5040 76° East 161 185 2,700 -780 Descending FlightAware
06:29AM -23.4370 -46.4790 73° East 148 170 2,300 -720 Descending FlightAware
06:29AM -23.4340 -46.4690 72° East 84 97 -6,900 Descending FlightAware
06:30AM -23.4310 -46.4600 70° East 84 97  Level FlightAware